Huntsville, Indiana
Current Conditions -  °F | °C
As of 9:15 AM on Friday 24 Oct 2014 (Local Time) from KMQJ Reporting Station
Clear Clear  
Wind Chill: 44°   Ceiling: Unl
Heat Index: 46°   Visibility: 7mi
Dew Point: 39°   Wind: 6mph
Humidity: 76%   Direction: 170°S
Pressure: 30.11"   Gusts: NA
Location:  39.98°N, 85.7739°W
Report Text: KMQJ 241315Z AUTO 17005KT 7SM CLR 08/04 A3011 RMK AO1
Loading
Personal Weather Stations






























Interactive Weather Map
Tropical Storm Tracking
New forecast layout! Learn more

10-Day Weather Forecast

Advertisements
Track Severe Weather on mobile